sensor_id;sensor_type;location;lat;lon;timestamp;temperature;humidity
13074;DHT22;6603;47.066;15.396;2022-10-31T00:01:34;8.60;99.90
13074;DHT22;6603;47.066;15.396;2022-10-31T00:04:01;8.70;99.90
13074;DHT22;6603;47.066;15.396;2022-10-31T00:06:27;8.60;99.90
13074;DHT22;6603;47.066;15.396;2022-10-31T00:08:58;8.80;99.90
13074;DHT22;6603;47.066;15.396;2022-10-31T00:11:25;8.80;99.90
13074;DHT22;6603;47.066;15.396;2022-10-31T00:13:51;8.70;99.90
13074;DHT22;6603;47.066;15.396;2022-10-31T00:16:20;8.70;99.90
13074;DHT22;6603;47.066;15.396;2022-10-31T00:18:55;8.60;99.90
13074;DHT22;6603;47.066;15.396;2022-10-31T00:21:22;8.60;99.90
13074;DHT22;6603;47.066;15.396;2022-10-31T00:23:48;8.70;99.90
13074;DHT22;6603;47.066;15.396;2022-10-31T00:26:14;8.70;99.90
13074;DHT22;6603;47.066;15.396;2022-10-31T00:28:41;8.50;99.90
13074;DHT22;6603;47.066;15.396;2022-10-31T00:31:09;8.50;99.90
13074;DHT22;6603;47.066;15.396;2022-10-31T00:33:37;8.50;99.90
13074;DHT22;6603;47.066;15.396;2022-10-31T00:36:05;8.60;99.90
13074;DHT22;6603;47.066;15.396;2022-10-31T00:38:31;8.50;99.90
13074;DHT22;6603;47.066;15.396;2022-10-31T00:40:57;8.50;99.90
13074;DHT22;6603;47.066;15.396;2022-10-31T00:43:24;8.50;99.90
13074;DHT22;6603;47.066;15.396;2022-10-31T00:45:50;8.50;99.90
13074;DHT22;6603;47.066;15.396;2022-10-31T00:48:16;8.50;99.90
13074;DHT22;6603;47.066;15.396;2022-10-31T00:50:42;8.40;99.90
13074;DHT22;6603;47.066;15.396;2022-10-31T00:53:08;8.30;99.90
13074;DHT22;6603;47.066;15.396;2022-10-31T00:55:34;8.20;99.90
13074;DHT22;6603;47.066;15.396;2022-10-31T00:58:00;8.30;99.90
13074;DHT22;6603;47.066;15.396;2022-10-31T01:00:26;8.40;99.90
13074;DHT22;6603;47.066;15.396;2022-10-31T01:02:52;8.30;99.90
13074;DHT22;6603;47.066;15.396;2022-10-31T01:05:18;8.10;99.90
13074;DHT22;6603;47.066;15.396;2022-10-31T01:07:44;8.10;99.90
13074;DHT22;6603;47.066;15.396;2022-10-31T01:10:11;8.20;99.90
13074;DHT22;6603;47.066;15.396;2022-10-31T01:12:44;8.20;99.90
13074;DHT22;6603;47.066;15.396;2022-10-31T01:15:12;8.20;99.90
13074;DHT22;6603;47.066;15.396;2022-10-31T01:17:39;8.20;99.90
13074;DHT22;6603;47.066;15.396;2022-10-31T01:20:07;8.10;99.90
13074;DHT22;6603;47.066;15.396;2022-10-31T01:22:34;8.20;99.90
13074;DHT22;6603;47.066;15.396;2022-10-31T01:25:00;8.20;99.90
13074;DHT22;6603;47.066;15.396;2022-10-31T01:27:26;8.10;99.90
13074;DHT22;6603;47.066;15.396;2022-10-31T01:29:52;8.00;99.90
13074;DHT22;6603;47.066;15.396;2022-10-31T01:32:18;8.00;99.90
13074;DHT22;6603;47.066;15.396;2022-10-31T01:34:44;8.10;99.90
13074;DHT22;6603;47.066;15.396;2022-10-31T01:37:10;8.10;99.90
13074;DHT22;6603;47.066;15.396;2022-10-31T01:39:36;8.30;99.90
13074;DHT22;6603;47.066;15.396;2022-10-31T01:42:02;8.20;99.90
13074;DHT22;6603;47.066;15.396;2022-10-31T01:49:37;8.00;99.90
13074;DHT22;6603;47.066;15.396;2022-10-31T01:54:53;7.80;99.90
13074;DHT22;6603;47.066;15.396;2022-10-31T01:57:21;7.80;99.90
13074;DHT22;6603;47.066;15.396;2022-10-31T01:59:50;7.90;99.90
13074;DHT22;6603;47.066;15.396;2022-10-31T02:02:18;7.80;99.90
13074;DHT22;6603;47.066;15.396;2022-10-31T02:04:46;7.70;99.90
13074;DHT22;6603;47.066;15.396;2022-10-31T02:07:22;7.70;99.90
13074;DHT22;6603;47.066;15.396;2022-10-31T02:09:50;7.70;99.90
13074;DHT22;6603;47.066;15.396;2022-10-31T02:12:17;7.70;99.90
13074;DHT22;6603;47.066;15.396;2022-10-31T02:14:44;7.70;99.90
13074;DHT22;6603;47.066;15.396;2022-10-31T02:17:10;7.80;99.90
13074;DHT22;6603;47.066;15.396;2022-10-31T02:20:18;7.80;99.90
13074;DHT22;6603;47.066;15.396;2022-10-31T02:34:09;8.00;99.90
13074;DHT22;6603;47.066;15.396;2022-10-31T02:39:52;7.90;99.90
13074;DHT22;6603;47.066;15.396;2022-10-31T02:45:07;7.80;99.90
13074;DHT22;6603;47.066;15.396;2022-10-31T02:47:38;7.80;99.90
13074;DHT22;6603;47.066;15.396;2022-10-31T02:52:34;7.80;99.90
13074;DHT22;6603;47.066;15.396;2022-10-31T02:58:07;7.70;99.90
13074;DHT22;6603;47.066;15.396;2022-10-31T03:03:36;7.70;99.90
13074;DHT22;6603;47.066;15.396;2022-10-31T03:08:55;7.90;99.90
13074;DHT22;6603;47.066;15.396;2022-10-31T03:11:31;8.00;99.90
13074;DHT22;6603;47.066;15.396;2022-10-31T03:14:12;8.00;99.90
13074;DHT22;6603;47.066;15.396;2022-10-31T03:16:47;8.10;99.90
13074;DHT22;6603;47.066;15.396;2022-10-31T03:19:28;8.20;99.90
13074;DHT22;6603;47.066;15.396;2022-10-31T03:22:07;8.20;99.90
13074;DHT22;6603;47.066;15.396;2022-10-31T03:24:38;8.40;99.90
13074;DHT22;6603;47.066;15.396;2022-10-31T03:27:07;8.30;99.90
13074;DHT22;6603;47.066;15.396;2022-10-31T03:29:36;8.30;99.90
13074;DHT22;6603;47.066;15.396;2022-10-31T03:32:39;8.30;99.90
13074;DHT22;6603;47.066;15.396;2022-10-31T03:35:08;8.30;99.90
13074;DHT22;6603;47.066;15.396;2022-10-31T03:37:36;8.40;99.90
13074;DHT22;6603;47.066;15.396;2022-10-31T03:40:06;8.30;99.90
13074;DHT22;6603;47.066;15.396;2022-10-31T03:42:37;8.20;99.90
13074;DHT22;6603;47.066;15.396;2022-10-31T03:47:37;8.10;99.90
13074;DHT22;6603;47.066;15.396;2022-10-31T03:50:05;8.10;99.90
13074;DHT22;6603;47.066;15.396;2022-10-31T03:55:35;7.90;99.90
13074;DHT22;6603;47.066;15.396;2022-10-31T03:58:07;7.80;99.90
13074;DHT22;6603;47.066;15.396;2022-10-31T04:00:35;7.80;99.90
13074;DHT22;6603;47.066;15.396;2022-10-31T04:03:17;7.90;99.90
13074;DHT22;6603;47.066;15.396;2022-10-31T04:05:49;7.90;99.90
13074;DHT22;6603;47.066;15.396;2022-10-31T04:08:18;7.80;99.90
13074;DHT22;6603;47.066;15.396;2022-10-31T04:10:48;7.90;99.90
13074;DHT22;6603;47.066;15.396;2022-10-31T04:13:19;7.90;99.90
13074;DHT22;6603;47.066;15.396;2022-10-31T04:15:46;7.70;99.90
13074;DHT22;6603;47.066;15.396;2022-10-31T04:18:13;7.70;99.90
13074;DHT22;6603;47.066;15.396;2022-10-31T04:20:41;7.80;99.90
13074;DHT22;6603;47.066;15.396;2022-10-31T04:23:31;7.70;99.90
13074;DHT22;6603;47.066;15.396;2022-10-31T04:25:57;7.60;99.90
13074;DHT22;6603;47.066;15.396;2022-10-31T04:28:23;7.50;99.90
13074;DHT22;6603;47.066;15.396;2022-10-31T04:30:49;7.50;99.90
13074;DHT22;6603;47.066;15.396;2022-10-31T04:33:15;7.60;99.90
13074;DHT22;6603;47.066;15.396;2022-10-31T04:35:41;7.60;99.90
13074;DHT22;6603;47.066;15.396;2022-10-31T04:38:07;7.60;99.90
13074;DHT22;6603;47.066;15.396;2022-10-31T04:40:33;7.60;99.90
13074;DHT22;6603;47.066;15.396;2022-10-31T04:42:59;7.60;99.90
13074;DHT22;6603;47.066;15.396;2022-10-31T04:45:25;7.50;99.90
13074;DHT22;6603;47.066;15.396;2022-10-31T04:47:51;7.60;99.90
13074;DHT22;6603;47.066;15.396;2022-10-31T04:50:17;7.60;99.90
13074;DHT22;6603;47.066;15.396;2022-10-31T04:52:44;7.60;99.90
13074;DHT22;6603;47.066;15.396;2022-10-31T04:55:12;7.50;99.90
13074;DHT22;6603;47.066;15.396;2022-10-31T04:57:43;7.50;99.90
13074;DHT22;6603;47.066;15.396;2022-10-31T05:00:10;7.60;99.90
13074;DHT22;6603;47.066;15.396;2022-10-31T05:02:44;7.60;99.90
13074;DHT22;6603;47.066;15.396;2022-10-31T05:05:12;7.50;99.90
13074;DHT22;6603;47.066;15.396;2022-10-31T05:07:39;7.60;99.90
13074;DHT22;6603;47.066;15.396;2022-10-31T05:10:07;7.50;99.90
13074;DHT22;6603;47.066;15.396;2022-10-31T05:12:32;7.40;99.90
13074;DHT22;6603;47.066;15.396;2022-10-31T05:14:58;7.40;99.90
13074;DHT22;6603;47.066;15.396;2022-10-31T05:17:24;7.40;99.90
13074;DHT22;6603;47.066;15.396;2022-10-31T05:29:40;7.40;99.90
13074;DHT22;6603;47.066;15.396;2022-10-31T05:32:06;7.40;99.90
13074;DHT22;6603;47.066;15.396;2022-10-31T05:34:32;7.40;99.90
13074;DHT22;6603;47.066;15.396;2022-10-31T05:36:58;7.30;99.90
13074;DHT22;6603;47.066;15.396;2022-10-31T05:39:23;7.20;99.90
13074;DHT22;6603;47.066;15.396;2022-10-31T05:41:49;7.40;99.90
13074;DHT22;6603;47.066;15.396;2022-10-31T05:44:15;7.20;99.90
13074;DHT22;6603;47.066;15.396;2022-10-31T05:46:41;7.40;99.90
13074;DHT22;6603;47.066;15.396;2022-10-31T05:49:06;7.60;99.90
13074;DHT22;6603;47.066;15.396;2022-10-31T05:51:32;7.40;99.90
13074;DHT22;6603;47.066;15.396;2022-10-31T05:53:58;7.50;99.90
13074;DHT22;6603;47.066;15.396;2022-10-31T05:56:23;7.50;99.90
13074;DHT22;6603;47.066;15.396;2022-10-31T05:58:49;7.40;99.90
13074;DHT22;6603;47.066;15.396;2022-10-31T06:01:15;7.40;99.90
13074;DHT22;6603;47.066;15.396;2022-10-31T06:03:41;7.20;99.90
13074;DHT22;6603;47.066;15.396;2022-10-31T06:06:06;7.30;99.90
13074;DHT22;6603;47.066;15.396;2022-10-31T06:08:32;7.30;99.90
13074;DHT22;6603;47.066;15.396;2022-10-31T06:10:58;7.40;99.90
13074;DHT22;6603;47.066;15.396;2022-10-31T06:13:23;7.20;99.90
13074;DHT22;6603;47.066;15.396;2022-10-31T06:15:49;7.30;99.90
13074;DHT22;6603;47.066;15.396;2022-10-31T06:18:15;7.40;99.90
13074;DHT22;6603;47.066;15.396;2022-10-31T06:20:41;7.50;99.90
13074;DHT22;6603;47.066;15.396;2022-10-31T06:23:06;7.50;99.90
13074;DHT22;6603;47.066;15.396;2022-10-31T06:25:32;7.60;99.90
13074;DHT22;6603;47.066;15.396;2022-10-31T06:27:58;7.60;99.90
13074;DHT22;6603;47.066;15.396;2022-10-31T06:30:24;7.70;99.90
13074;DHT22;6603;47.066;15.396;2022-10-31T06:32:50;7.60;99.90
13074;DHT22;6603;47.066;15.396;2022-10-31T06:35:16;7.70;99.90
13074;DHT22;6603;47.066;15.396;2022-10-31T06:37:42;7.80;99.90
13074;DHT22;6603;47.066;15.396;2022-10-31T06:40:08;7.90;99.90
13074;DHT22;6603;47.066;15.396;2022-10-31T06:42:34;8.10;99.90
13074;DHT22;6603;47.066;15.396;2022-10-31T06:45:00;8.10;99.90
13074;DHT22;6603;47.066;15.396;2022-10-31T06:47:26;8.10;99.90
13074;DHT22;6603;47.066;15.396;2022-10-31T06:49:51;8.20;99.90
13074;DHT22;6603;47.066;15.396;2022-10-31T06:52:17;8.30;99.90
13074;DHT22;6603;47.066;15.396;2022-10-31T06:54:43;8.40;99.90
13074;DHT22;6603;47.066;15.396;2022-10-31T06:57:08;8.60;99.90
13074;DHT22;6603;47.066;15.396;2022-10-31T06:59:34;8.60;99.90
13074;DHT22;6603;47.066;15.396;2022-10-31T07:02:00;8.80;99.90
13074;DHT22;6603;47.066;15.396;2022-10-31T07:04:25;8.90;99.90
13074;DHT22;6603;47.066;15.396;2022-10-31T07:06:52;9.00;99.90
13074;DHT22;6603;47.066;15.396;2022-10-31T07:09:18;9.00;99.90
13074;DHT22;6603;47.066;15.396;2022-10-31T07:11:44;9.20;99.90
13074;DHT22;6603;47.066;15.396;2022-10-31T07:14:09;9.40;99.90
13074;DHT22;6603;47.066;15.396;2022-10-31T07:16:35;9.40;99.90
13074;DHT22;6603;47.066;15.396;2022-10-31T07:19:01;9.50;99.90
13074;DHT22;6603;47.066;15.396;2022-10-31T07:21:26;9.50;99.90
13074;DHT22;6603;47.066;15.396;2022-10-31T07:23:52;9.60;99.90
13074;DHT22;6603;47.066;15.396;2022-10-31T07:26:18;9.70;99.90
13074;DHT22;6603;47.066;15.396;2022-10-31T07:28:45;9.80;99.90
13074;DHT22;6603;47.066;15.396;2022-10-31T07:31:11;10.00;99.90
13074;DHT22;6603;47.066;15.396;2022-10-31T07:33:37;10.10;99.90
13074;DHT22;6603;47.066;15.396;2022-10-31T07:36:03;10.20;99.90
13074;DHT22;6603;47.066;15.396;2022-10-31T07:38:28;10.20;99.90
13074;DHT22;6603;47.066;15.396;2022-10-31T07:40:54;10.30;99.90
13074;DHT22;6603;47.066;15.396;2022-10-31T07:43:20;10.40;99.90
13074;DHT22;6603;47.066;15.396;2022-10-31T07:45:50;10.50;99.90
13074;DHT22;6603;47.066;15.396;2022-10-31T07:48:16;10.60;99.90
13074;DHT22;6603;47.066;15.396;2022-10-31T07:50:42;10.70;99.90
13074;DHT22;6603;47.066;15.396;2022-10-31T07:53:09;10.80;99.90
13074;DHT22;6603;47.066;15.396;2022-10-31T07:55:36;10.90;99.90
13074;DHT22;6603;47.066;15.396;2022-10-31T07:58:06;11.00;99.90
13074;DHT22;6603;47.066;15.396;2022-10-31T08:00:33;11.10;99.90
13074;DHT22;6603;47.066;15.396;2022-10-31T08:03:11;11.20;99.90
13074;DHT22;6603;47.066;15.396;2022-10-31T08:05:37;11.20;99.90
13074;DHT22;6603;47.066;15.396;2022-10-31T08:08:04;11.30;99.90
13074;DHT22;6603;47.066;15.396;2022-10-31T08:10:31;11.40;99.90
13074;DHT22;6603;47.066;15.396;2022-10-31T08:12:59;11.50;99.90
13074;DHT22;6603;47.066;15.396;2022-10-31T08:15:25;11.60;99.90
13074;DHT22;6603;47.066;15.396;2022-10-31T08:17:52;11.70;99.90
13074;DHT22;6603;47.066;15.396;2022-10-31T08:20:18;11.80;99.90
13074;DHT22;6603;47.066;15.396;2022-10-31T08:23:02;11.90;99.90
13074;DHT22;6603;47.066;15.396;2022-10-31T08:25:30;12.00;99.90
13074;DHT22;6603;47.066;15.396;2022-10-31T08:27:56;12.10;99.90
13074;DHT22;6603;47.066;15.396;2022-10-31T08:30:25;12.20;99.90
13074;DHT22;6603;47.066;15.396;2022-10-31T08:33:12;12.30;99.90
13074;DHT22;6603;47.066;15.396;2022-10-31T08:35:38;12.40;99.90
13074;DHT22;6603;47.066;15.396;2022-10-31T08:38:05;12.50;99.90
13074;DHT22;6603;47.066;15.396;2022-10-31T08:40:32;12.60;99.90
13074;DHT22;6603;47.066;15.396;2022-10-31T08:43:19;12.70;99.90
13074;DHT22;6603;47.066;15.396;2022-10-31T08:45:48;12.80;99.90
13074;DHT22;6603;47.066;15.396;2022-10-31T08:48:16;12.90;99.90
13074;DHT22;6603;47.066;15.396;2022-10-31T08:50:43;13.00;99.90
13074;DHT22;6603;47.066;15.396;2022-10-31T08:53:16;13.10;99.90
13074;DHT22;6603;47.066;15.396;2022-10-31T08:55:44;13.20;99.90
13074;DHT22;6603;47.066;15.396;2022-10-31T08:58:13;13.30;99.90
13074;DHT22;6603;47.066;15.396;2022-10-31T09:00:39;13.40;99.90
13074;DHT22;6603;47.066;15.396;2022-10-31T09:03:14;13.50;99.90
13074;DHT22;6603;47.066;15.396;2022-10-31T09:05:44;13.60;99.90
13074;DHT22;6603;47.066;15.396;2022-10-31T09:08:12;13.70;99.90
13074;DHT22;6603;47.066;15.396;2022-10-31T09:10:38;13.80;99.90
13074;DHT22;6603;47.066;15.396;2022-10-31T09:13:05;13.90;99.90
13074;DHT22;6603;47.066;15.396;2022-10-31T09:15:36;14.00;99.90
13074;DHT22;6603;47.066;15.396;2022-10-31T09:18:07;14.20;68.00
13074;DHT22;6603;47.066;15.396;2022-10-31T09:20:35;14.40;53.70
13074;DHT22;6603;47.066;15.396;2022-10-31T09:23:06;14.50;81.90
13074;DHT22;6603;47.066;15.396;2022-10-31T09:25:34;14.50;50.90
13074;DHT22;6603;47.066;15.396;2022-10-31T09:28:02;14.60;7.60
13074;DHT22;6603;47.066;15.396;2022-10-31T09:30:32;14.90;1.00
13074;DHT22;6603;47.066;15.396;2022-10-31T09:33:03;14.90;1.00
13074;DHT22;6603;47.066;15.396;2022-10-31T09:35:29;14.90;1.00
13074;DHT22;6603;47.066;15.396;2022-10-31T09:38:01;15.10;17.10
13074;DHT22;6603;47.066;15.396;2022-10-31T09:40:42;15.20;1.00
13074;DHT22;6603;47.066;15.396;2022-10-31T09:51:50;15.80;1.00
13074;DHT22;6603;47.066;15.396;2022-10-31T09:54:32;15.90;1.00
13074;DHT22;6603;47.066;15.396;2022-10-31T09:57:00;16.10;1.00
13074;DHT22;6603;47.066;15.396;2022-10-31T09:59:39;16.10;1.00
13074;DHT22;6603;47.066;15.396;2022-10-31T10:02:24;16.20;1.00
13074;DHT22;6603;47.066;15.396;2022-10-31T10:05:03;16.30;1.00
13074;DHT22;6603;47.066;15.396;2022-10-31T10:10:00;16.40;1.00
13074;DHT22;6603;47.066;15.396;2022-10-31T10:15:40;16.60;1.00
13074;DHT22;6603;47.066;15.396;2022-10-31T10:18:20;16.80;1.00
13074;DHT22;6603;47.066;15.396;2022-10-31T10:27:23;16.90;1.00
13074;DHT22;6603;47.066;15.396;2022-10-31T10:30:02;17.00;1.00
13074;DHT22;6603;47.066;15.396;2022-10-31T10:32:40;17.00;1.00
13074;DHT22;6603;47.066;15.396;2022-10-31T10:40:33;17.40;1.00
13074;DHT22;6603;47.066;15.396;2022-10-31T10:49:17;17.70;4.60
13074;DHT22;6603;47.066;15.396;2022-10-31T10:54:49;17.90;99.90
13074;DHT22;6603;47.066;15.396;2022-10-31T11:00:17;18.10;1.00
13074;DHT22;6603;47.066;15.396;2022-10-31T11:02:44;18.00;1.00
13074;DHT22;6603;47.066;15.396;2022-10-31T11:05:26;18.20;1.00
13074;DHT22;6603;47.066;15.396;2022-10-31T11:07:54;18.40;1.00
13074;DHT22;6603;47.066;15.396;2022-10-31T11:10:20;18.40;99.90
13074;DHT22;6603;47.066;15.396;2022-10-31T11:15:26;18.50;1.00
13074;DHT22;6603;47.066;15.396;2022-10-31T11:17:55;18.60;1.00
13074;DHT22;6603;47.066;15.396;2022-10-31T11:20:26;18.60;1.00
13074;DHT22;6603;47.066;15.396;2022-10-31T11:23:20;18.70;99.90
13074;DHT22;6603;47.066;15.396;2022-10-31T11:28:20;18.90;1.00
13074;DHT22;6603;47.066;15.396;2022-10-31T11:30:58;19.00;15.40
13074;DHT22;6603;47.066;15.396;2022-10-31T11:33:35;19.10;1.00
13074;DHT22;6603;47.066;15.396;2022-10-31T11:36:25;19.20;1.00
13074;DHT22;6603;47.066;15.396;2022-10-31T11:38:50;19.10;1.00
13074;DHT22;6603;47.066;15.396;2022-10-31T11:43:58;19.50;99.90
13074;DHT22;6603;47.066;15.396;2022-10-31T11:46:35;19.60;1.00
13074;DHT22;6603;47.066;15.396;2022-10-31T11:49:03;19.60;1.00
13074;DHT22;6603;47.066;15.396;2022-10-31T11:51:32;19.70;99.90
13074;DHT22;6603;47.066;15.396;2022-10-31T11:53:59;19.80;1.00
13074;DHT22;6603;47.066;15.396;2022-10-31T11:56:40;19.70;1.00
13074;DHT22;6603;47.066;15.396;2022-10-31T11:59:24;19.90;1.00
13074;DHT22;6603;47.066;15.396;2022-10-31T12:01:53;19.80;1.00
13074;DHT22;6603;47.066;15.396;2022-10-31T12:04:25;19.90;1.00
13074;DHT22;6603;47.066;15.396;2022-10-31T12:06:54;19.90;1.00
13074;DHT22;6603;47.066;15.396;2022-10-31T12:09:24;20.00;51.20
13074;DHT22;6603;47.066;15.396;2022-10-31T12:17:18;20.20;64.90
13074;DHT22;6603;47.066;15.396;2022-10-31T12:23:20;20.20;1.00
13074;DHT22;6603;47.066;15.396;2022-10-31T12:26:45;20.20;1.00
13074;DHT22;6603;47.066;15.396;2022-10-31T12:37:34;20.30;1.00
13074;DHT22;6603;47.066;15.396;2022-10-31T12:40:34;20.30;1.00
13074;DHT22;6603;47.066;15.396;2022-10-31T12:46:23;20.20;99.90
13074;DHT22;6603;47.066;15.396;2022-10-31T12:57:39;20.30;1.00
13074;DHT22;6603;47.066;15.396;2022-10-31T13:00:13;20.40;1.00
13074;DHT22;6603;47.066;15.396;2022-10-31T13:05:46;20.50;1.00
13074;DHT22;6603;47.066;15.396;2022-10-31T13:08:20;20.40;99.90
13074;DHT22;6603;47.066;15.396;2022-10-31T13:11:05;20.40;1.00
13074;DHT22;6603;47.066;15.396;2022-10-31T13:13:36;20.40;99.90
13074;DHT22;6603;47.066;15.396;2022-10-31T13:16:23;20.40;99.90
13074;DHT22;6603;47.066;15.396;2022-10-31T13:19:00;20.40;1.00
13074;DHT22;6603;47.066;15.396;2022-10-31T13:21:38;20.60;1.00
13074;DHT22;6603;47.066;15.396;2022-10-31T13:24:12;20.70;1.00
13074;DHT22;6603;47.066;15.396;2022-10-31T13:26:50;20.70;99.90
13074;DHT22;6603;47.066;15.396;2022-10-31T13:29:35;20.40;99.90
13074;DHT22;6603;47.066;15.396;2022-10-31T13:32:07;20.40;1.00
13074;DHT22;6603;47.066;15.396;2022-10-31T13:34:37;20.30;99.90
13074;DHT22;6603;47.066;15.396;2022-10-31T13:45:19;20.20;99.90
13074;DHT22;6603;47.066;15.396;2022-10-31T13:47:56;20.10;99.90
13074;DHT22;6603;47.066;15.396;2022-10-31T13:50:24;20.10;99.90
13074;DHT22;6603;47.066;15.396;2022-10-31T13:52:51;20.00;1.00
13074;DHT22;6603;47.066;15.396;2022-10-31T13:55:42;19.90;50.90
13074;DHT22;6603;47.066;15.396;2022-10-31T13:58:27;19.90;99.90
13074;DHT22;6603;47.066;15.396;2022-10-31T14:01:16;19.80;64.60
13074;DHT22;6603;47.066;15.396;2022-10-31T14:03:46;19.60;1.00
13074;DHT22;6603;47.066;15.396;2022-10-31T14:06:14;19.40;1.00
13074;DHT22;6603;47.066;15.396;2022-10-31T14:08:48;19.40;1.00
13074;DHT22;6603;47.066;15.396;2022-10-31T14:11:25;19.30;99.90
13074;DHT22;6603;47.066;15.396;2022-10-31T14:13:55;19.20;1.00
13074;DHT22;6603;47.066;15.396;2022-10-31T14:16:28;19.00;1.00
13074;DHT22;6603;47.066;15.396;2022-10-31T14:19:19;18.90;1.00
13074;DHT22;6603;47.066;15.396;2022-10-31T14:21:50;18.80;99.90
13074;DHT22;6603;47.066;15.396;2022-10-31T14:29:49;18.40;99.90
13074;DHT22;6603;47.066;15.396;2022-10-31T14:32:24;18.30;99.90
13074;DHT22;6603;47.066;15.396;2022-10-31T14:37:44;18.00;1.00
13074;DHT22;6603;47.066;15.396;2022-10-31T14:46:00;17.60;1.00
13074;DHT22;6603;47.066;15.396;2022-10-31T14:48:49;17.40;1.00
13074;DHT22;6603;47.066;15.396;2022-10-31T14:51:21;17.30;1.00
13074;DHT22;6603;47.066;15.396;2022-10-31T14:53:55;17.30;1.00
13074;DHT22;6603;47.066;15.396;2022-10-31T14:56:29;17.10;1.00
13074;DHT22;6603;47.066;15.396;2022-10-31T14:59:07;17.10;1.00
13074;DHT22;6603;47.066;15.396;2022-10-31T15:01:36;17.10;1.00
13074;DHT22;6603;47.066;15.396;2022-10-31T15:04:16;16.80;1.00
13074;DHT22;6603;47.066;15.396;2022-10-31T15:06:51;16.70;1.00
13074;DHT22;6603;47.066;15.396;2022-10-31T15:09:33;16.70;1.00
13074;DHT22;6603;47.066;15.396;2022-10-31T15:12:22;16.50;1.00
13074;DHT22;6603;47.066;15.396;2022-10-31T15:14:46;16.40;1.00
13074;DHT22;6603;47.066;15.396;2022-10-31T15:17:12;16.20;21.30
13074;DHT22;6603;47.066;15.396;2022-10-31T15:19:38;16.10;37.90
13074;DHT22;6603;47.066;15.396;2022-10-31T15:22:07;15.90;62.70
13074;DHT22;6603;47.066;15.396;2022-10-31T15:24:37;15.70;84.60
13074;DHT22;6603;47.066;15.396;2022-10-31T15:27:16;15.40;99.90
13074;DHT22;6603;47.066;15.396;2022-10-31T15:29:54;15.20;99.90
13074;DHT22;6603;47.066;15.396;2022-10-31T15:32:25;15.10;99.90
13074;DHT22;6603;47.066;15.396;2022-10-31T15:34:53;15.10;99.90
13074;DHT22;6603;47.066;15.396;2022-10-31T15:37:21;14.90;99.90
13074;DHT22;6603;47.066;15.396;2022-10-31T15:39:49;14.80;99.90
13074;DHT22;6603;47.066;15.396;2022-10-31T15:42:51;14.70;99.90
13074;DHT22;6603;47.066;15.396;2022-10-31T15:45:23;14.60;99.90
13074;DHT22;6603;47.066;15.396;2022-10-31T15:48:21;14.40;99.90
13074;DHT22;6603;47.066;15.396;2022-10-31T15:53:22;14.20;99.90
13074;DHT22;6603;47.066;15.396;2022-10-31T15:55:58;13.90;99.90
13074;DHT22;6603;47.066;15.396;2022-10-31T15:58:25;13.90;99.90
13074;DHT22;6603;47.066;15.396;2022-10-31T16:07:29;13.70;99.90
13074;DHT22;6603;47.066;15.396;2022-10-31T16:12:24;13.40;99.90
13074;DHT22;6603;47.066;15.396;2022-10-31T16:14:53;13.30;99.90
13074;DHT22;6603;47.066;15.396;2022-10-31T16:17:22;13.20;99.90
13074;DHT22;6603;47.066;15.396;2022-10-31T16:20:00;13.10;99.90
13074;DHT22;6603;47.066;15.396;2022-10-31T16:22:33;13.00;99.90
13074;DHT22;6603;47.066;15.396;2022-10-31T16:27:33;12.80;99.90
13074;DHT22;6603;47.066;15.396;2022-10-31T16:30:00;12.70;99.90
13074;DHT22;6603;47.066;15.396;2022-10-31T16:32:51;12.70;99.90
13074;DHT22;6603;47.066;15.396;2022-10-31T16:35:38;12.60;99.90
13074;DHT22;6603;47.066;15.396;2022-10-31T16:38:05;12.50;99.90
13074;DHT22;6603;47.066;15.396;2022-10-31T16:40:32;12.40;99.90
13074;DHT22;6603;47.066;15.396;2022-10-31T16:43:00;12.30;99.90
13074;DHT22;6603;47.066;15.396;2022-10-31T16:45:31;12.30;99.90
13074;DHT22;6603;47.066;15.396;2022-10-31T16:48:04;12.30;99.90
13074;DHT22;6603;47.066;15.396;2022-10-31T16:50:31;12.20;99.90
13074;DHT22;6603;47.066;15.396;2022-10-31T16:52:58;12.20;99.90
13074;DHT22;6603;47.066;15.396;2022-10-31T16:55:24;12.20;99.90
13074;DHT22;6603;47.066;15.396;2022-10-31T16:57:53;12.00;99.90
13074;DHT22;6603;47.066;15.396;2022-10-31T17:00:22;12.00;99.90
13074;DHT22;6603;47.066;15.396;2022-10-31T17:02:50;11.90;99.90
13074;DHT22;6603;47.066;15.396;2022-10-31T17:05:19;11.90;99.90
13074;DHT22;6603;47.066;15.396;2022-10-31T17:07:46;11.90;99.90
13074;DHT22;6603;47.066;15.396;2022-10-31T17:10:14;11.80;99.90
13074;DHT22;6603;47.066;15.396;2022-10-31T17:12:45;11.70;99.90
13074;DHT22;6603;47.066;15.396;2022-10-31T17:15:23;11.70;99.90
13074;DHT22;6603;47.066;15.396;2022-10-31T17:17:49;11.60;99.90
13074;DHT22;6603;47.066;15.396;2022-10-31T17:20:25;11.50;99.90
13074;DHT22;6603;47.066;15.396;2022-10-31T17:22:52;11.50;99.90
13074;DHT22;6603;47.066;15.396;2022-10-31T17:25:21;11.40;99.90
13074;DHT22;6603;47.066;15.396;2022-10-31T17:27:48;11.40;99.90
13074;DHT22;6603;47.066;15.396;2022-10-31T17:30:15;11.40;99.90
13074;DHT22;6603;47.066;15.396;2022-10-31T17:32:44;11.30;99.90
13074;DHT22;6603;47.066;15.396;2022-10-31T17:35:12;11.30;99.90
13074;DHT22;6603;47.066;15.396;2022-10-31T17:37:39;11.30;99.90
13074;DHT22;6603;47.066;15.396;2022-10-31T17:40:11;11.20;99.90
13074;DHT22;6603;47.066;15.396;2022-10-31T17:42:37;11.10;99.90
13074;DHT22;6603;47.066;15.396;2022-10-31T17:45:04;11.20;99.90
13074;DHT22;6603;47.066;15.396;2022-10-31T17:47:30;11.10;99.90
13074;DHT22;6603;47.066;15.396;2022-10-31T17:49:56;11.10;99.90
13074;DHT22;6603;47.066;15.396;2022-10-31T17:52:22;11.10;99.90
13074;DHT22;6603;47.066;15.396;2022-10-31T17:54:47;11.10;99.90
13074;DHT22;6603;47.066;15.396;2022-10-31T17:57:13;11.10;99.90
13074;DHT22;6603;47.066;15.396;2022-10-31T17:59:41;11.00;99.90
13074;DHT22;6603;47.066;15.396;2022-10-31T18:02:09;10.90;99.90
13074;DHT22;6603;47.066;15.396;2022-10-31T18:04:36;10.80;99.90
13074;DHT22;6603;47.066;15.396;2022-10-31T18:07:03;10.70;99.90
13074;DHT22;6603;47.066;15.396;2022-10-31T18:09:29;10.80;99.90
13074;DHT22;6603;47.066;15.396;2022-10-31T18:11:55;10.70;99.90
13074;DHT22;6603;47.066;15.396;2022-10-31T18:14:21;10.60;99.90
13074;DHT22;6603;47.066;15.396;2022-10-31T18:16:47;10.60;99.90
13074;DHT22;6603;47.066;15.396;2022-10-31T18:19:14;10.50;99.90
13074;DHT22;6603;47.066;15.396;2022-10-31T18:21:41;10.60;99.90
13074;DHT22;6603;47.066;15.396;2022-10-31T18:24:08;10.50;99.90
13074;DHT22;6603;47.066;15.396;2022-10-31T18:26:35;10.60;99.90
13074;DHT22;6603;47.066;15.396;2022-10-31T18:29:00;10.50;99.90
13074;DHT22;6603;47.066;15.396;2022-10-31T18:31:26;10.40;99.90
13074;DHT22;6603;47.066;15.396;2022-10-31T18:33:53;10.40;99.90
13074;DHT22;6603;47.066;15.396;2022-10-31T18:36:20;10.30;99.90
13074;DHT22;6603;47.066;15.396;2022-10-31T18:38:46;10.10;99.90
13074;DHT22;6603;47.066;15.396;2022-10-31T18:41:13;10.30;99.90
13074;DHT22;6603;47.066;15.396;2022-10-31T18:43:40;10.30;99.90
13074;DHT22;6603;47.066;15.396;2022-10-31T18:46:08;10.30;99.90